Time;durP1;ratioP1;P1;durP2;ratioP2;P2;SDS_P1;SDS_P2;PMS_P1;PMS_P2;Temp;Humidity;BMP_temperature;BMP_pressure;BME280_temperature;BME280_humidity;BME280_pressure;Samples;Min_cycle;Max_cycle;Signal;HPM_P1;HPM_P2
2023/05/31 00:04:02;;;;;;;2.28;0.28;;;;;;;18.13;100.00;102609.13;10438448;28;20385;-81
2023/05/31 00:09:04;;;;;;;0.20;0.20;;;;;;;18.20;100.00;102616.25;10451039;28;20057;-82
2023/05/31 00:14:05;;;;;;;0.45;0.45;;;;;;;17.79;100.00;102624.88;10456532;28;20056;-82
2023/05/31 00:19:07;;;;;;;0.10;0.10;;;;;;;17.54;100.00;102618.16;10422502;28;20041;-82
2023/05/31 00:24:16;;;;;;;0.20;0.20;;;;;;;17.38;100.00;102615.22;10451393;28;20809;-82
2023/05/31 00:29:18;;;;;;;2.83;0.57;;;;;;;17.95;100.00;102618.31;10424126;28;20508;-82
2023/05/31 00:34:19;;;;;;;0.20;0.20;;;;;;;17.70;100.00;102609.88;10464978;28;20076;-82
2023/05/31 00:39:21;;;;;;;0.32;0.32;;;;;;;17.85;100.00;102608.47;10440610;28;20053;-81
2023/05/31 00:44:23;;;;;;;0.00;0.00;;;;;;;17.51;100.00;102607.69;10451651;28;20045;-82
2023/05/31 00:49:26;;;;;;;0.10;0.10;;;;;;;18.02;100.00;102607.16;10458004;28;20040;-81
2023/05/31 00:54:28;;;;;;;0.00;0.00;;;;;;;17.83;100.00;102616.25;10461695;28;20131;-81
2023/05/31 00:59:30;;;;;;;0.35;0.20;;;;;;;17.65;100.00;102626.28;10425915;28;20404;-81
2023/05/31 01:04:33;;;;;;;0.00;0.00;;;;;;;17.91;100.00;102619.94;10455733;28;20037;-81
2023/05/31 01:09:36;;;;;;;0.03;0.03;;;;;;;18.26;100.00;102621.59;10456091;28;20048;-81
2023/05/31 01:15:07;;;;;;;1.08;0.32;;;;;;;17.69;100.00;102623.75;10439442;28;20083;-81
2023/05/31 01:20:10;;;;;;;0.32;0.30;;;;;;;17.20;100.00;102628.63;10454758;28;20052;-82
2023/05/31 01:25:47;;;;;;;0.80;0.30;;;;;;;17.27;100.00;102622.75;10445669;28;20060;-82
2023/05/31 01:30:50;;;;;;;0.35;0.15;;;;;;;17.59;100.00;102629.59;10453604;28;20048;-81
2023/05/31 01:35:51;;;;;;;0.43;0.30;;;;;;;17.49;100.00;102625.00;10463761;28;20057;-81
2023/05/31 01:40:56;;;;;;;0.30;0.30;;;;;;;17.64;100.00;102621.91;10450946;28;20540;-81
2023/05/31 01:45:59;;;;;;;0.10;0.10;;;;;;;17.30;100.00;102624.56;10454564;28;20386;-81
2023/05/31 01:51:02;;;;;;;1.23;0.93;;;;;;;17.49;100.00;102625.00;10477782;28;20048;-81
2023/05/31 01:56:05;;;;;;;0.40;0.20;;;;;;;17.59;100.00;102616.56;10466590;28;20464;-81
2023/05/31 02:01:10;;;;;;;0.00;0.00;;;;;;;17.55;100.00;102620.81;10448985;28;20128;-81
2023/05/31 02:06:15;;;;;;;0.38;0.20;;;;;;;17.56;100.00;102622.59;10449052;28;20056;-81
2023/05/31 02:11:17;;;;;;;0.08;0.00;;;;;;;17.41;100.00;102627.44;10440234;28;20068;-82
2023/05/31 02:16:19;;;;;;;0.10;0.10;;;;;;;17.14;100.00;102623.25;10452511;28;20508;-81
2023/05/31 02:21:23;;;;;;;0.15;0.10;;;;;;;17.81;100.00;102612.72;10433022;28;20043;-81
2023/05/31 02:26:24;;;;;;;0.65;0.15;;;;;;;17.32;100.00;102624.59;10434514;28;20072;-81
2023/05/31 02:31:26;;;;;;;0.88;0.65;;;;;;;16.86;100.00;102619.88;10449956;28;20056;-82
2023/05/31 02:36:28;;;;;;;0.40;0.28;;;;;;;17.05;100.00;102618.69;10458328;28;20124;-82
2023/05/31 02:41:30;;;;;;;0.10;0.10;;;;;;;17.57;100.00;102613.03;10434271;28;20059;-81
2023/05/31 02:46:32;;;;;;;0.50;0.35;;;;;;;17.48;100.00;102602.38;10453333;28;20063;-81
2023/05/31 02:51:34;;;;;;;0.77;0.65;;;;;;;16.97;100.00;102612.41;10448087;28;20142;-81
2023/05/31 02:56:56;;;;;;;0.85;0.55;;;;;;;16.67;100.00;102594.22;10457483;28;20041;-81
2023/05/31 03:02:00;;;;;;;1.63;0.70;;;;;;;17.03;100.00;102602.13;10445897;28;20049;-82
2023/05/31 03:07:08;;;;;;;0.90;0.70;;;;;;;16.77;100.00;102594.50;10451943;28;20048;-82
2023/05/31 03:12:10;;;;;;;1.40;0.70;;;;;;;17.26;100.00;102594.03;10433189;28;20439;-81
2023/05/31 03:17:13;;;;;;;1.17;0.57;;;;;;;17.08;100.00;102597.97;10450909;28;20389;-81
2023/05/31 03:22:15;;;;;;;0.03;0.03;;;;;;;17.06;100.00;102599.63;10436780;28;20073;-81
2023/05/31 03:27:16;;;;;;;0.35;0.35;;;;;;;17.44;100.00;102591.91;10435014;28;20056;-81
2023/05/31 03:32:18;;;;;;;1.52;0.50;;;;;;;17.19;100.00;102594.72;10448469;28;20048;-81
2023/05/31 03:37:20;;;;;;;1.70;0.60;;;;;;;16.88;100.00;102591.28;10430272;28;20049;-82
2023/05/31 03:42:31;;;;;;;0.40;0.40;;;;;;;16.73;100.00;102589.16;10438445;28;20044;-82
2023/05/31 03:47:32;;;;;;;0.25;0.25;;;;;;;16.72;100.00;102593.47;10447972;28;20482;-82
2023/05/31 03:52:37;;;;;;;0.93;0.65;;;;;;;16.49;100.00;102609.31;10442273;28;20045;-82
2023/05/31 03:57:39;;;;;;;0.82;0.63;;;;;;;17.04;100.00;102601.31;10444350;28;20451;-82
2023/05/31 04:02:42;;;;;;;0.93;0.40;;;;;;;17.09;100.00;102602.28;10451401;28;20052;-81
2023/05/31 04:07:57;;;;;;;0.32;0.32;;;;;;;16.68;100.00;102601.19;10461944;28;20841;-81
2023/05/31 04:12:59;;;;;;;0.68;0.50;;;;;;;16.99;100.00;102597.72;10452582;28;20393;-81
2023/05/31 04:18:01;;;;;;;1.77;1.27;;;;;;;16.86;100.00;102608.59;10460186;28;20045;-81
2023/05/31 04:23:03;;;;;;;0.75;0.68;;;;;;;16.52;100.00;102612.84;10474469;28;20047;-82
2023/05/31 04:28:06;;;;;;;1.05;0.63;;;;;;;16.82;100.00;102615.44;10450728;28;20060;-82
2023/05/31 04:33:07;;;;;;;1.52;0.98;;;;;;;17.07;100.00;102617.03;10433846;28;20059;-82
2023/05/31 04:38:11;;;;;;;1.77;0.63;;;;;;;17.00;100.00;102609.88;10451779;28;20041;-82
2023/05/31 04:43:17;;;;;;;1.08;0.85;;;;;;;17.36;100.00;102606.47;10429415;28;20126;-82
2023/05/31 04:48:20;;;;;;;1.95;0.65;;;;;;;17.72;100.00;102597.75;10457989;28;20048;-82
2023/05/31 04:53:23;;;;;;;1.98;0.38;;;;;;;18.04;100.00;102602.88;10453459;28;20049;-82
2023/05/31 04:58:25;;;;;;;1.23;1.08;;;;;;;17.89;100.00;102607.72;10458356;28;20049;-82
2023/05/31 05:03:28;;;;;;;2.55;0.70;;;;;;;18.43;100.00;102602.81;10446258;28;20077;-82
2023/05/31 05:08:30;;;;;;;0.55;0.30;;;;;;;18.14;100.00;102619.59;10452044;28;20079;-82
2023/05/31 05:13:33;;;;;;;0.95;0.38;;;;;;;18.78;100.00;102615.66;10442919;28;20474;-81
2023/05/31 05:18:36;;;;;;;1.38;0.80;;;;;;;17.99;100.00;102616.66;10429038;28;20134;-82
2023/05/31 05:23:39;;;;;;;0.68;0.50;;;;;;;18.54;100.00;102609.09;10457871;28;20411;-82
2023/05/31 05:28:41;;;;;;;1.00;0.68;;;;;;;18.03;100.00;102621.97;10454583;28;20131;-82
2023/05/31 05:33:42;;;;;;;0.20;0.20;;;;;;;18.67;100.00;102611.09;10458348;28;20037;-82
2023/05/31 05:38:46;;;;;;;1.05;0.88;;;;;;;18.89;100.00;102613.25;10460208;28;20036;-80
2023/05/31 05:43:47;;;;;;;0.75;0.63;;;;;;;19.01;100.00;102614.41;10434059;28;20049;-81
2023/05/31 05:48:51;;;;;;;1.67;0.73;;;;;;;19.17;100.00;102609.44;10444399;28;20519;-82
2023/05/31 05:53:55;;;;;;;0.25;0.25;;;;;;;19.08;100.00;102619.72;10443771;28;20076;-82
2023/05/31 05:58:57;;;;;;;1.67;1.17;;;;;;;18.97;100.00;102607.34;10440759;28;20045;-83
2023/05/31 06:04:28;;;;;;;1.02;0.85;;;;;;;18.81;100.00;102606.16;10455249;28;20053;-83
2023/05/31 06:09:30;;;;;;;5.85;0.95;;;;;;;19.87;100.00;102607.97;10439667;28;20037;-82
2023/05/31 06:14:31;;;;;;;0.52;0.40;;;;;;;19.39;100.00;102604.59;10466275;28;20519;-82
2023/05/31 06:19:34;;;;;;;0.75;0.73;;;;;;;20.10;100.00;102610.88;10449588;28;20072;-83
2023/05/31 06:24:35;;;;;;;0.85;0.82;;;;;;;19.94;100.00;102610.66;10432464;28;20149;-83
2023/05/31 06:29:37;;;;;;;1.33;1.20;;;;;;;20.54;100.00;102610.56;10450938;28;20144;-83
2023/05/31 06:35:00;;;;;;;1.83;0.98;;;;;;;20.50;100.00;102611.38;10448847;28;20542;-82
2023/05/31 06:40:02;;;;;;;3.05;0.88;;;;;;;20.04;100.00;102621.25;10462253;28;20053;-82
2023/05/31 06:45:05;;;;;;;0.40;0.40;;;;;;;21.02;100.00;102615.47;10457363;28;20053;-82
2023/05/31 06:50:27;;;;;;;1.10;0.50;;;;;;;21.44;100.00;102613.19;10447510;28;20115;-82
2023/05/31 06:55:47;;;;;;;;;;;;;;;21.63;100.00;102609.00;10452505;28;20053;-82
2023/05/31 07:00:53;;;;;;;3.17;1.70;;;;;;;21.95;100.00;102605.69;10457607;28;19925;-83
2023/05/31 07:05:54;;;;;;;1.25;1.08;;;;;;;21.39;100.00;102607.91;10463280;28;20131;-83
2023/05/31 07:10:56;;;;;;;1.52;0.95;;;;;;;22.28;100.00;102607.59;10459024;28;20052;-82
2023/05/31 07:15:58;;;;;;;2.10;0.52;;;;;;;22.78;100.00;102592.88;10461719;28;20056;-83
2023/05/31 07:21:01;;;;;;;0.70;0.68;;;;;;;22.99;100.00;102599.03;10457778;28;20089;-83
2023/05/31 07:26:03;;;;;;;1.70;0.75;;;;;;;23.40;100.00;102587.69;10470117;28;20157;-83
2023/05/31 07:31:05;;;;;;;0.40;0.40;;;;;;;22.78;100.00;102597.28;10449976;28;20040;-84
2023/05/31 07:36:07;;;;;;;0.85;0.57;;;;;;;24.74;100.00;102579.31;10455180;28;20037;-83
2023/05/31 07:41:09;;;;;;;3.20;1.05;;;;;;;24.42;100.00;102577.72;10457798;28;20674;-83
2023/05/31 07:46:10;;;;;;;0.77;0.57;;;;;;;25.93;90.57;102586.13;10437905;28;20049;-83
2023/05/31 07:51:12;;;;;;;0.65;0.55;;;;;;;24.23;94.67;102583.09;10451724;28;20395;-84
2023/05/31 07:56:14;;;;;;;1.65;1.20;;;;;;;26.58;85.15;102575.59;10442157;28;20049;-84
2023/05/31 08:01:16;;;;;;;0.50;0.47;;;;;;;24.51;91.23;102582.94;10450331;28;20080;-84
2023/05/31 08:06:17;;;;;;;2.28;0.90;;;;;;;25.63;88.75;102578.56;10477331;28;20059;-84
2023/05/31 08:11:19;;;;;;;0.93;0.55;;;;;;;25.39;88.77;102582.34;10429441;28;20041;-83
2023/05/31 08:16:21;;;;;;;1.08;0.55;;;;;;;26.27;87.58;102578.69;10450661;28;20059;-84
2023/05/31 08:21:23;;;;;;;1.40;0.90;;;;;;;25.95;85.22;102585.22;10448155;28;20064;-84
2023/05/31 08:26:25;;;;;;;5.13;1.05;;;;;;;25.74;86.70;102573.16;10442583;28;20049;-79
2023/05/31 08:31:27;;;;;;;4.85;0.65;;;;;;;28.36;78.78;102547.63;10417921;28;20045;-78
2023/05/31 08:36:29;;;;;;;1.15;0.60;;;;;;;25.96;80.75;102570.25;10436779;28;20063;-82
2023/05/31 08:41:36;;;;;;;2.47;0.95;;;;;;;27.88;80.53;102553.09;10442520;28;20041;-81
2023/05/31 08:46:38;;;;;;;4.32;0.55;;;;;;;28.32;76.46;102556.56;10441639;28;20051;-79
2023/05/31 08:51:40;;;;;;;0.47;0.47;;;;;;;29.93;71.34;102541.81;10469192;28;20051;-80
2023/05/31 08:56:43;;;;;;;2.28;0.82;;;;;;;28.58;70.26;102552.44;10457542;28;20051;-79
2023/05/31 09:01:47;;;;;;;4.22;1.48;;;;;;;28.46;72.62;102549.19;10465294;28;20036;-78
2023/05/31 09:06:49;;;;;;;0.38;0.30;;;;;;;28.93;68.92;102542.78;10453354;28;20052;-79
2023/05/31 09:11:50;;;;;;;0.25;0.25;;;;;;;28.60;72.36;102542.66;10440273;28;20041;-78
2023/05/31 09:16:52;;;;;;;1.55;1.10;;;;;;;28.29;72.30;102536.31;10440602;28;20048;-80
2023/05/31 09:21:54;;;;;;;5.88;0.30;;;;;;;29.47;70.03;102545.78;10440325;28;20044;-79
2023/05/31 09:26:56;;;;;;;0.13;0.10;;;;;;;28.66;69.47;102531.91;10456881;28;20056;-80
2023/05/31 09:32:17;;;;;;;0.30;0.20;;;;;;;29.77;69.15;102528.09;10455753;28;20045;-81
2023/05/31 09:37:23;;;;;;;1.58;0.60;;;;;;;30.17;63.70;102523.38;10455567;28;20045;-79
2023/05/31 09:42:26;;;;;;;1.45;0.43;;;;;;;30.98;63.05;102517.19;10471155;28;20076;-78
2023/05/31 09:47:28;;;;;;;6.22;1.15;;;;;;;29.20;67.11;102519.06;10455308;28;20136;-81
2023/05/31 09:52:30;;;;;;;0.03;0.03;;;;;;;30.51;63.11;102507.25;10455613;28;20141;-80
2023/05/31 09:57:40;;;;;;;0.20;0.20;;;;;;;31.44;57.24;102497.84;10455200;28;20048;-78
2023/05/31 10:02:50;;;;;;;0.32;0.32;;;;;;;30.39;63.71;102497.84;10477144;28;20118;-78
2023/05/31 10:07:53;;;;;;;11.88;1.85;;;;;;;29.32;62.22;102505.47;10424688;28;20061;-78
2023/05/31 10:12:58;;;;;;;0.52;0.52;;;;;;;28.00;65.67;102505.16;10464911;28;20045;-80
2023/05/31 10:18:09;;;;;;;0.20;0.20;;;;;;;31.59;58.52;102481.28;10454273;28;20404;-79
2023/05/31 10:23:18;;;;;;;2.10;0.20;;;;;;;30.36;57.02;102487.31;10454184;28;20514;-80
2023/05/31 10:28:23;;;;;;;0.70;0.20;;;;;;;29.89;57.87;102479.06;10434360;28;20056;-79
2023/05/31 10:33:30;;;;;;;0.20;0.15;;;;;;;30.20;57.30;102481.63;10466436;28;20080;-80
2023/05/31 10:38:42;;;;;;;1.08;0.57;;;;;;;30.83;56.14;102476.00;10457521;28;20053;-78
2023/05/31 10:44:13;;;;;;;0.80;0.45;;;;;;;30.17;56.09;102467.56;10468377;28;20057;-78
2023/05/31 10:49:16;;;;;;;0.60;0.28;;;;;;;28.92;58.38;102469.41;10452307;28;20045;-79
2023/05/31 10:54:22;;;;;;;0.22;0.08;;;;;;;30.44;57.14;102456.94;10447286;28;20053;-78
2023/05/31 10:59:25;;;;;;;0.22;0.15;;;;;;;31.62;53.15;102443.00;10448324;28;20064;-79
2023/05/31 11:04:28;;;;;;;0.30;0.22;;;;;;;29.18;55.40;102457.19;10480259;28;20080;-79
2023/05/31 11:09:31;;;;;;;0.43;0.30;;;;;;;29.64;56.09;102450.56;10465856;28;20040;-80
2023/05/31 11:14:32;;;;;;;0.73;0.63;;;;;;;29.61;54.93;102455.97;10444315;28;20042;-79
2023/05/31 11:19:40;;;;;;;1.88;1.15;;;;;;;31.22;55.47;102440.06;10470014;28;20055;-78
2023/05/31 11:24:53;;;;;;;0.50;0.35;;;;;;;32.54;52.43;102429.53;10460388;28;20510;-78
2023/05/31 11:29:54;;;;;;;0.17;0.08;;;;;;;32.63;50.98;102425.59;10454783;28;20128;-79
2023/05/31 11:35:00;;;;;;;0.40;0.40;;;;;;;32.37;52.26;102419.56;10466439;28;20381;-79
2023/05/31 11:40:06;;;;;;;0.10;0.10;;;;;;;32.32;49.69;102421.59;10471996;28;20052;-80
2023/05/31 11:45:13;;;;;;;0.95;0.45;;;;;;;30.94;52.48;102422.41;10445909;28;20053;-78
2023/05/31 11:50:16;;;;;;;0.40;0.40;;;;;;;32.38;49.22;102405.31;10443855;28;20128;-79
2023/05/31 11:55:19;;;;;;;0.20;0.10;;;;;;;32.04;49.35;102401.38;10472545;28;20048;-79
2023/05/31 12:00:21;;;;;;;1.55;0.20;;;;;;;31.73;48.42;102395.50;10460018;28;20042;-80
2023/05/31 12:05:23;;;;;;;0.30;0.17;;;;;;;31.63;47.67;102387.00;10459130;28;20139;-80
2023/05/31 12:10:30;;;;;;;0.00;0.00;;;;;;;30.27;49.97;102389.25;10441107;28;20045;-80
2023/05/31 12:15:32;;;;;;;0.05;0.05;;;;;;;29.90;49.88;102386.00;10420342;28;20041;-80
2023/05/31 12:20:34;;;;;;;0.20;0.20;;;;;;;31.28;50.16;102370.59;10455231;28;20136;-79
2023/05/31 12:25:36;;;;;;;2.20;0.55;;;;;;;30.54;50.53;102381.28;10458727;28;20496;-79
2023/05/31 12:30:43;;;;;;;0.70;0.35;;;;;;;29.80;50.07;102370.41;10442418;28;20040;-80
2023/05/31 12:35:48;;;;;;;0.40;0.20;;;;;;;31.12;48.67;102366.78;10418457;28;20531;-79
2023/05/31 12:40:52;;;;;;;0.30;0.30;;;;;;;30.50;49.71;102355.69;10466179;28;20385;-81
2023/05/31 12:45:54;;;;;;;0.28;0.17;;;;;;;31.62;48.86;102353.28;10474905;28;20053;-80
2023/05/31 12:50:57;;;;;;;0.65;0.30;;;;;;;31.98;47.52;102348.34;10457358;28;20140;-81
2023/05/31 12:55:59;;;;;;;0.10;0.10;;;;;;;30.66;48.76;102351.59;10457406;28;20098;-82
2023/05/31 13:01:01;;;;;;;0.00;0.00;;;;;;;33.15;46.76;102326.28;10465443;28;20132;-80
2023/05/31 13:06:04;;;;;;;0.00;0.00;;;;;;;31.33;48.98;102331.34;10460414;28;20489;-80
2023/05/31 13:11:06;;;;;;;1.92;0.82;;;;;;;30.75;49.16;102338.88;10457077;28;20514;-81
2023/05/31 13:16:08;;;;;;;0.38;0.35;;;;;;;30.28;48.01;102324.53;10458800;28;20482;-80
2023/05/31 13:21:09;;;;;;;0.05;0.05;;;;;;;32.02;48.15;102313.47;10476932;28;20052;-79
2023/05/31 13:26:12;;;;;;;0.10;0.10;;;;;;;31.40;48.40;102317.78;10462215;28;20445;-78
2023/05/31 13:31:13;;;;;;;0.05;0.05;;;;;;;31.87;47.80;102320.34;10456766;28;20068;-79
2023/05/31 13:36:19;;;;;;;0.20;0.10;;;;;;;30.58;49.75;102313.75;10455504;28;20071;-81
2023/05/31 13:41:22;;;;;;;0.40;0.30;;;;;;;32.11;46.83;102306.91;10456825;28;20487;-81
2023/05/31 13:46:26;;;;;;;0.10;0.10;;;;;;;30.56;48.30;102315.63;10443963;28;20075;-81
2023/05/31 13:51:28;;;;;;;0.43;0.43;;;;;;;30.56;47.99;102296.13;10453629;28;20450;-79
2023/05/31 13:56:30;;;;;;;0.10;0.10;;;;;;;32.28;46.94;102287.53;10471467;28;20055;-81
2023/05/31 14:01:31;;;;;;;0.10;0.10;;;;;;;32.00;46.97;102282.50;10462380;28;20044;-82
2023/05/31 14:06:33;;;;;;;0.10;0.10;;;;;;;32.07;46.02;102276.84;10454500;28;20106;-80
2023/05/31 14:11:34;;;;;;;0.10;0.10;;;;;;;31.87;46.42;102272.38;10474902;28;20036;-80
2023/05/31 14:16:36;;;;;;;0.30;0.20;;;;;;;30.89;46.30;102277.19;10453724;28;20048;-81
2023/05/31 14:21:38;;;;;;;0.75;0.30;;;;;;;31.11;47.82;102269.25;10446576;28;20048;-81
2023/05/31 14:26:43;;;;;;;0.25;0.20;;;;;;;30.84;47.32;102264.03;10437058;28;20056;-79
2023/05/31 14:31:44;;;;;;;0.00;0.00;;;;;;;31.54;46.86;102258.66;10437121;28;20140;-79
2023/05/31 14:36:46;;;;;;;0.00;0.00;;;;;;;31.88;45.77;102254.56;10454205;28;20049;-80
2023/05/31 14:41:48;;;;;;;0.40;0.17;;;;;;;30.90;47.46;102242.53;10445848;28;20048;-82
2023/05/31 14:46:54;;;;;;;0.13;0.13;;;;;;;32.28;45.85;102235.03;10435653;28;20045;-80
2023/05/31 14:51:57;;;;;;;0.17;0.10;;;;;;;31.77;46.32;102239.03;10424672;28;20072;-79
2023/05/31 14:56:59;;;;;;;1.65;0.47;;;;;;;31.49;45.61;102227.75;10456466;28;20522;-81
2023/05/31 15:02:01;;;;;;;0.43;0.30;;;;;;;32.80;46.05;102212.28;10445587;28;20132;-79
2023/05/31 15:07:03;;;;;;;0.28;0.10;;;;;;;30.76;45.96;102223.56;10453149;28;20423;-80
2023/05/31 15:12:05;;;;;;;0.43;0.30;;;;;;;30.69;45.93;102220.25;10453047;28;20055;-81
2023/05/31 15:17:06;;;;;;;0.17;0.13;;;;;;;31.02;46.53;102215.41;10461269;28;20053;-79
2023/05/31 15:22:09;;;;;;;2.63;0.30;;;;;;;30.62;47.08;102230.28;10453231;28;20068;-81
2023/05/31 15:27:11;;;;;;;1.45;0.90;;;;;;;30.55;46.02;102231.44;10454090;28;20045;-81
2023/05/31 15:32:13;;;;;;;0.13;0.13;;;;;;;31.72;46.12;102231.28;10446071;28;20043;-80
2023/05/31 15:37:14;;;;;;;0.03;0.03;;;;;;;31.91;46.75;102226.00;10466425;28;20052;-81
2023/05/31 15:42:17;;;;;;;0.20;0.13;;;;;;;32.44;47.34;102207.69;10484812;28;20056;-80
2023/05/31 15:47:19;;;;;;;0.10;0.10;;;;;;;31.52;47.08;102208.13;10449842;28;20491;-79
2023/05/31 15:52:20;;;;;;;1.90;0.85;;;;;;;31.44;45.14;102205.75;10464303;28;20457;-79
2023/05/31 15:57:22;;;;;;;0.28;0.28;;;;;;;31.63;45.99;102205.84;10476164;28;20033;-80
2023/05/31 16:02:24;;;;;;;0.38;0.38;;;;;;;30.80;46.65;102210.09;10473786;28;20491;-79
2023/05/31 16:07:27;;;;;;;0.32;0.17;;;;;;;31.51;46.70;102198.41;10457549;28;20048;-81
2023/05/31 16:12:29;;;;;;;1.02;0.35;;;;;;;30.63;46.42;102186.81;10455058;28;20040;-81
2023/05/31 16:17:30;;;;;;;0.35;0.20;;;;;;;30.83;46.51;102194.00;10471916;28;20435;-80
2023/05/31 16:22:32;;;;;;;0.43;0.43;;;;;;;31.37;46.67;102201.63;10463378;28;20044;-81
2023/05/31 16:27:34;;;;;;;0.20;0.20;;;;;;;31.71;47.71;102186.91;10453111;28;20591;-80
2023/05/31 16:32:35;;;;;;;0.00;0.00;;;;;;;31.64;48.22;102188.94;10456094;28;20110;-80
2023/05/31 16:37:37;;;;;;;0.32;0.25;;;;;;;30.35;49.80;102192.28;10464406;28;20052;-83
2023/05/31 16:42:39;;;;;;;1.50;0.30;;;;;;;31.46;51.29;102176.44;10455818;28;20046;-79
2023/05/31 16:47:40;;;;;;;0.22;0.10;;;;;;;30.61;54.28;102172.72;10465587;28;20059;-79
2023/05/31 16:52:42;;;;;;;0.00;0.00;;;;;;;30.74;55.38;102181.06;10451061;28;20561;-81
2023/05/31 16:57:44;;;;;;;0.80;0.45;;;;;;;30.20;54.06;102177.75;10473730;28;20041;-79
2023/05/31 17:02:45;;;;;;;0.17;0.10;;;;;;;29.72;55.97;102176.78;10439970;28;20395;-80
2023/05/31 17:07:47;;;;;;;0.10;0.10;;;;;;;29.63;57.38;102175.31;10466598;28;20044;-80
2023/05/31 17:12:49;;;;;;;0.10;0.10;;;;;;;29.41;57.56;102168.09;10464386;28;20476;-80
2023/05/31 17:17:51;;;;;;;0.03;0.00;;;;;;;29.27;60.13;102172.97;10446347;28;20053;-78
2023/05/31 17:22:53;;;;;;;0.10;0.10;;;;;;;28.90;59.45;102166.19;10448182;28;20492;-81
2023/05/31 17:27:55;;;;;;;1.02;0.38;;;;;;;29.20;59.86;102163.47;10472207;28;20049;-79
2023/05/31 17:32:57;;;;;;;0.55;0.22;;;;;;;29.56;60.73;102160.53;10446590;28;20052;-80
2023/05/31 17:37:59;;;;;;;0.10;0.00;;;;;;;29.19;60.21;102162.56;10471755;28;20056;-78
2023/05/31 17:43:01;;;;;;;0.15;0.10;;;;;;;28.84;61.26;102161.94;10454695;28;20584;-80
2023/05/31 17:48:02;;;;;;;0.05;0.05;;;;;;;28.29;61.68;102162.69;10438592;28;20067;-78
2023/05/31 17:53:04;;;;;;;2.13;0.40;;;;;;;28.74;60.96;102156.06;10446700;28;20095;-77
2023/05/31 17:58:06;;;;;;;0.00;0.00;;;;;;;28.21;60.92;102161.13;10442048;28;20137;-80
2023/05/31 18:03:08;;;;;;;0.00;0.00;;;;;;;27.80;61.41;102158.69;10442913;28;20139;-80
2023/05/31 18:08:09;;;;;;;0.75;0.45;;;;;;;28.34;61.20;102146.59;10469981;28;20049;-80
2023/05/31 18:13:11;;;;;;;0.20;0.08;;;;;;;27.58;62.09;102153.97;10431383;28;20048;-80
2023/05/31 18:18:13;;;;;;;0.70;0.60;;;;;;;27.58;63.06;102151.31;10437259;28;20045;-78
2023/05/31 18:23:18;;;;;;;0.15;0.05;;;;;;;27.68;63.49;102157.25;10437793;28;20041;-80
2023/05/31 18:28:19;;;;;;;1.30;0.10;;;;;;;27.55;64.36;102152.28;10462304;28;20411;-79
2023/05/31 18:33:21;;;;;;;1.45;0.68;;;;;;;27.10;63.66;102154.25;10458944;28;20055;-79
2023/05/31 18:38:23;;;;;;;0.43;0.13;;;;;;;26.84;64.89;102153.97;10430671;28;20076;-80
2023/05/31 18:43:25;;;;;;;0.25;0.25;;;;;;;26.55;65.56;102158.06;10462544;28;20047;-80
2023/05/31 18:48:27;;;;;;;0.35;0.10;;;;;;;26.57;67.05;102158.91;10436398;28;20127;-82
2023/05/31 18:53:28;;;;;;;0.10;0.10;;;;;;;26.04;69.99;102156.44;10434976;28;20419;-80
2023/05/31 18:58:31;;;;;;;0.10;0.10;;;;;;;25.89;73.33;102168.16;10435592;28;20060;-80
2023/05/31 19:03:33;;;;;;;3.15;0.25;;;;;;;25.42;77.34;102173.38;10447767;28;20048;-80
2023/05/31 19:08:34;;;;;;;1.02;0.32;;;;;;;25.08;81.15;102175.63;10437101;28;20442;-81
2023/05/31 19:13:36;;;;;;;0.10;0.10;;;;;;;24.32;84.73;102181.84;10468608;28;20475;-79
2023/05/31 19:18:38;;;;;;;0.32;0.32;;;;;;;24.81;85.10;102180.41;10457740;28;20041;-79
2023/05/31 19:23:40;;;;;;;0.52;0.45;;;;;;;24.17;87.58;102194.28;10448948;28;20470;-80
2023/05/31 19:28:42;;;;;;;0.85;0.40;;;;;;;24.13;88.18;102196.97;10444134;28;20060;-80
2023/05/31 19:33:43;;;;;;;2.03;0.40;;;;;;;23.64;90.42;102199.16;10473000;28;20052;-78
2023/05/31 19:38:45;;;;;;;1.25;0.10;;;;;;;23.57;91.06;102205.31;10453429;28;20051;-80
2023/05/31 19:43:47;;;;;;;0.65;0.30;;;;;;;23.60;91.60;102210.56;10443306;28;20044;-81
2023/05/31 19:48:50;;;;;;;0.32;0.22;;;;;;;22.95;94.85;102218.84;10459886;28;20044;-80
2023/05/31 19:54:14;;;;;;;0.20;0.10;;;;;;;22.79;95.28;102232.06;10459898;28;20041;-80
2023/05/31 19:59:15;;;;;;;0.10;0.10;;;;;;;22.15;97.93;102225.19;10472591;28;20049;-80
2023/05/31 20:04:17;;;;;;;0.15;0.10;;;;;;;22.46;96.60;102220.78;10442824;28;20064;-82
2023/05/31 20:09:19;;;;;;;0.22;0.20;;;;;;;22.23;98.00;102233.06;10445882;28;20048;-79
2023/05/31 20:14:21;;;;;;;0.30;0.30;;;;;;;22.32;96.70;102238.28;10459455;28;20052;-80
2023/05/31 20:19:24;;;;;;;2.15;0.52;;;;;;;21.77;99.06;102247.97;10462740;28;20049;-81
2023/05/31 20:24:25;;;;;;;0.40;0.30;;;;;;;21.72;98.35;102252.31;10454659;28;20514;-80
2023/05/31 20:29:27;;;;;;;0.35;0.10;;;;;;;21.38;98.80;102252.25;10450036;28;20037;-80
2023/05/31 20:34:29;;;;;;;0.17;0.17;;;;;;;20.96;100.00;102266.97;10469539;28;20067;-81
2023/05/31 20:39:31;;;;;;;1.23;0.77;;;;;;;20.78;100.00;102271.25;10437455;28;20053;-81
2023/05/31 20:44:33;;;;;;;0.30;0.30;;;;;;;20.50;100.00;102276.28;10442321;28;20052;-79
2023/05/31 20:49:35;;;;;;;0.17;0.17;;;;;;;20.23;100.00;102288.31;10454599;28;20492;-80
2023/05/31 20:54:37;;;;;;;0.20;0.20;;;;;;;20.26;100.00;102283.09;10447615;28;20051;-80
2023/05/31 20:59:39;;;;;;;1.40;0.45;;;;;;;19.63;100.00;102275.53;10461249;28;20033;-79
2023/05/31 21:04:40;;;;;;;0.28;0.22;;;;;;;19.33;100.00;102276.97;10455731;28;20079;-80
2023/05/31 21:09:42;;;;;;;0.30;0.30;;;;;;;19.40;100.00;102285.75;10484701;28;20055;-82
2023/05/31 21:14:45;;;;;;;2.17;0.38;;;;;;;19.64;100.00;102287.75;10440142;28;20068;-80
2023/05/31 21:19:47;;;;;;;0.08;0.08;;;;;;;19.36;100.00;102285.69;10463131;28;20068;-79
2023/05/31 21:25:06;;;;;;;0.33;0.23;;;;;;;19.05;100.00;102290.56;10478595;28;20036;-82
2023/05/31 21:30:08;;;;;;;0.20;0.20;;;;;;;19.28;100.00;102294.31;10486434;28;20287;-81
2023/05/31 21:35:10;;;;;;;0.32;0.30;;;;;;;19.21;100.00;102302.94;10455941;28;20060;-80
2023/05/31 21:40:12;;;;;;;0.22;0.22;;;;;;;19.11;100.00;102301.06;10438959;28;20049;-80
2023/05/31 21:45:13;;;;;;;0.30;0.30;;;;;;;18.81;100.00;102308.50;10441756;28;20055;-82
2023/05/31 21:50:15;;;;;;;0.70;0.30;;;;;;;18.73;100.00;102309.25;10453741;28;20399;-82
2023/05/31 21:55:17;;;;;;;2.60;0.40;;;;;;;19.29;100.00;102309.16;10465449;28;20052;-81
2023/05/31 22:00:19;;;;;;;0.30;0.20;;;;;;;18.15;100.00;102321.41;10470590;28;20052;-81
2023/05/31 22:05:20;;;;;;;0.98;0.43;;;;;;;19.24;100.00;102320.41;10450317;28;20052;-81
2023/05/31 22:10:22;;;;;;;0.38;0.30;;;;;;;18.50;100.00;102328.91;10454260;28;20045;-80
2023/05/31 22:15:25;;;;;;;0.52;0.45;;;;;;;17.89;100.00;102333.94;10454450;28;20067;-79
2023/05/31 22:20:27;;;;;;;0.65;0.40;;;;;;;17.96;100.00;102327.13;10438340;28;20055;-80
2023/05/31 22:25:29;;;;;;;0.43;0.25;;;;;;;17.98;100.00;102328.94;10442367;28;20418;-82
2023/05/31 22:30:30;;;;;;;0.22;0.13;;;;;;;17.63;100.00;102331.72;10454640;28;20132;-80
2023/05/31 22:35:32;;;;;;;1.15;0.52;;;;;;;17.25;100.00;102329.22;10462352;28;20715;-81
2023/05/31 22:40:36;;;;;;;2.55;0.63;;;;;;;17.27;100.00;102322.31;10437996;28;20094;-80
2023/05/31 22:45:38;;;;;;;1.00;1.00;;;;;;;17.11;100.00;102332.41;10453287;28;20056;-81
2023/05/31 22:50:39;;;;;;;0.28;0.28;;;;;;;16.84;100.00;102331.78;10476835;28;20052;-82
2023/05/31 22:55:41;;;;;;;2.38;0.95;;;;;;;16.83;100.00;102330.00;10461904;28;20064;-80
2023/05/31 23:00:42;;;;;;;0.40;0.38;;;;;;;16.74;100.00;102336.75;10459837;28;20051;-82
2023/05/31 23:05:45;;;;;;;0.85;0.68;;;;;;;16.58;100.00;102345.03;10444633;28;20044;-81
2023/05/31 23:10:48;;;;;;;0.20;0.20;;;;;;;16.67;100.00;102340.06;10477460;28;20476;-81